createdAt,value
2023-04-02T00:20:02.329Z,3.7
2023-04-02T00:50:02.304Z,3.8
2023-04-02T01:20:13.624Z,3.6
2023-04-02T01:50:02.259Z,3.5
2023-04-02T02:20:03.165Z,2.7
2023-04-02T02:50:04.016Z,2.5
2023-04-02T03:20:21.919Z,2.9
2023-04-02T03:50:05.686Z,2.9
2023-04-02T04:20:08.226Z,2.9
2023-04-02T04:50:05.027Z,2.6
2023-04-02T05:20:19.976Z,1.9
2023-04-02T05:50:13.241Z,1.8
2023-04-02T06:20:05.318Z,1.3
2023-04-02T06:50:07.894Z,1.2
2023-04-02T07:20:04.434Z,1
2023-04-02T07:50:04.133Z,1.2
2023-04-02T08:20:06.695Z,1.3
2023-04-02T08:50:08.099Z,1.2
2023-04-02T09:20:12.672Z,1
2023-04-02T09:50:16.014Z,1
2023-04-02T10:20:11.426Z,1
2023-04-02T10:50:15.718Z,1.1
2023-04-02T11:20:21.204Z,1.1
2023-04-02T11:50:23.392Z,1.2
2023-04-02T12:20:27.671Z,0.9
2023-04-02T12:50:19.516Z,1
2023-04-02T13:20:30.558Z,0.8
2023-04-02T13:50:24.591Z,0.8
2023-04-02T14:20:29.949Z,1
2023-04-02T14:50:28.612Z,0.9
2023-04-02T15:20:28.018Z,0.7
2023-04-02T15:50:40.977Z,0.8
2023-04-02T16:20:36.192Z,0.8
2023-04-02T16:50:41.180Z,0.8
2023-04-02T17:20:36.801Z,0.9
2023-04-02T17:50:46.772Z,0.8
2023-04-02T18:20:43.415Z,1
2023-04-02T18:50:46.244Z,0.8
2023-04-02T19:20:44.505Z,0.9
2023-04-02T19:50:42.032Z,0.6
2023-04-02T20:20:43.108Z,0.6
2023-04-02T20:50:44.773Z,0.7
2023-04-02T21:20:43.313Z,0.8
2023-04-02T21:50:44.630Z,0.7
2023-04-02T22:20:45.783Z,0.6
2023-04-02T22:50:43.898Z,0.8
2023-04-02T23:20:46.503Z,0.7
2023-04-02T23:50:46.686Z,0.8
